Time;durP1;ratioP1;P1;durP2;ratioP2;P2;SDS_P1;SDS_P2;PMS_P1;PMS_P2;Temp;Humidity;BMP_temperature;BMP_pressure;BME280_temperature;BME280_humidity;BME280_pressure;Samples;Min_cycle;Max_cycle;Signal;HPM_P1;HPM_P2
2023/07/23 00:00:36;;;;;;;;;;;14.20;99.90;;;;;;5094289;28;20326;-75
2023/07/23 00:03:02;;;;;;;;;;;14.20;99.90;;;;;;5093601;28;19969;-77
2023/07/23 00:05:28;;;;;;;;;;;14.20;99.90;;;;;;5110916;28;19920;-76
2023/07/23 00:07:54;;;;;;;;;;;14.20;99.90;;;;;;5110565;28;20334;-76
2023/07/23 00:10:20;;;;;;;;;;;14.20;99.90;;;;;;5084124;28;19924;-75
2023/07/23 00:12:46;;;;;;;;;;;14.20;99.90;;;;;;5074130;28;20758;-76
2023/07/23 00:15:12;;;;;;;;;;;14.20;99.90;;;;;;5090922;28;20266;-75
2023/07/23 00:17:39;;;;;;;;;;;14.10;99.90;;;;;;5073959;28;19920;-76
2023/07/23 00:20:05;;;;;;;;;;;14.10;99.90;;;;;;5091653;28;19928;-77
2023/07/23 00:22:31;;;;;;;;;;;14.10;99.90;;;;;;5090659;28;19967;-77
2023/07/23 00:24:57;;;;;;;;;;;14.10;99.90;;;;;;5072777;28;20388;-76
2023/07/23 00:27:25;;;;;;;;;;;14.10;99.90;;;;;;5090621;28;19974;-76
2023/07/23 00:29:51;;;;;;;;;;;14.10;99.90;;;;;;5089946;28;19920;-76
2023/07/23 00:32:18;;;;;;;;;;;14.10;99.90;;;;;;5090445;28;20019;-75
2023/07/23 00:34:44;;;;;;;;;;;14.10;99.90;;;;;;5090608;28;19928;-75
2023/07/23 00:37:09;;;;;;;;;;;14.10;99.90;;;;;;5090928;28;19973;-75
2023/07/23 00:39:35;;;;;;;;;;;14.10;99.90;;;;;;5090566;28;19924;-77
2023/07/23 00:42:02;;;;;;;;;;;14.10;99.90;;;;;;5089688;28;19924;-75
2023/07/23 00:44:27;;;;;;;;;;;14.10;99.90;;;;;;5110527;28;19987;-75
2023/07/23 00:46:54;;;;;;;;;;;14.10;99.90;;;;;;5110068;28;20010;-76
2023/07/23 00:49:25;;;;;;;;;;;14.10;99.90;;;;;;5110461;28;20386;-77
2023/07/23 00:51:52;;;;;;;;;;;14.10;99.90;;;;;;5109771;28;19924;-76
2023/07/23 00:54:18;;;;;;;;;;;14.00;99.90;;;;;;5109914;28;19970;-76
2023/07/23 00:56:44;;;;;;;;;;;14.00;99.90;;;;;;5110367;28;19993;-75
2023/07/23 00:59:10;;;;;;;;;;;14.00;99.90;;;;;;5109592;28;20373;-75
2023/07/23 01:01:36;;;;;;;;;;;14.00;99.90;;;;;;5110669;28;19966;-77
2023/07/23 01:04:03;;;;;;;;;;;14.00;99.90;;;;;;5110377;28;20304;-76
2023/07/23 01:06:29;;;;;;;;;;;14.00;99.90;;;;;;5101125;28;20316;-75
2023/07/23 01:08:55;;;;;;;;;;;14.00;99.90;;;;;;5089426;28;19962;-76
2023/07/23 01:11:22;;;;;;;;;;;14.00;99.90;;;;;;5089493;28;19924;-74
2023/07/23 01:13:49;;;;;;;;;;;14.00;99.90;;;;;;5089376;28;19924;-75
2023/07/23 01:16:15;;;;;;;;;;;14.00;99.90;;;;;;5089390;28;19928;-76
2023/07/23 01:18:41;;;;;;;;;;;14.00;99.90;;;;;;5089553;28;19920;-76
2023/07/23 01:21:07;;;;;;;;;;;14.00;99.90;;;;;;5088874;28;20020;-76
2023/07/23 01:23:32;;;;;;;;;;;14.00;99.90;;;;;;5072480;28;19955;-75
2023/07/23 01:26:09;;;;;;;;;;;14.00;99.90;;;;;;5090487;28;20011;-77
2023/07/23 01:28:35;;;;;;;;;;;14.00;99.90;;;;;;5089566;28;19928;-76
2023/07/23 01:31:01;;;;;;;;;;;14.00;99.90;;;;;;5072301;28;20564;-76
2023/07/23 01:33:26;;;;;;;;;;;14.00;99.90;;;;;;5089725;28;19924;-76
2023/07/23 01:35:54;;;;;;;;;;;14.00;99.90;;;;;;5072132;28;20369;-74
2023/07/23 01:38:20;;;;;;;;;;;14.00;99.90;;;;;;5089768;28;19920;-75
2023/07/23 01:40:47;;;;;;;;;;;14.00;99.90;;;;;;5092664;28;19945;-75
2023/07/23 01:43:12;;;;;;;;;;;14.00;99.90;;;;;;5109193;28;19931;-75
2023/07/23 01:45:44;;;;;;;;;;;14.00;99.90;;;;;;5110451;28;19919;-77
2023/07/23 01:48:13;;;;;;;;;;;14.00;99.90;;;;;;5111143;28;20048;-76
2023/07/23 01:50:39;;;;;;;;;;;14.00;99.90;;;;;;5109844;28;20402;-76
2023/07/23 01:53:06;;;;;;;;;;;14.00;99.90;;;;;;5109658;28;20376;-75
2023/07/23 01:55:31;;;;;;;;;;;14.00;99.90;;;;;;5109391;28;19928;-77
2023/07/23 01:57:57;;;;;;;;;;;14.00;99.90;;;;;;5108950;28;19930;-75
2023/07/23 02:00:22;;;;;;;;;;;14.00;99.90;;;;;;5109322;28;19920;-76
2023/07/23 02:02:48;;;;;;;;;;;14.00;99.90;;;;;;5099771;28;19920;-77
2023/07/23 02:05:13;;;;;;;;;;;14.00;99.90;;;;;;5088583;28;19924;-76
2023/07/23 02:07:39;;;;;;;;;;;14.00;99.90;;;;;;5072093;28;19928;-75
2023/07/23 02:10:05;;;;;;;;;;;14.10;99.90;;;;;;5071863;28;19972;-76
2023/07/23 02:12:32;;;;;;;;;;;14.10;99.90;;;;;;5089988;28;19931;-77
2023/07/23 02:14:58;;;;;;;;;;;14.10;99.90;;;;;;5093353;28;19927;-75
2023/07/23 02:17:24;;;;;;;;;;;14.10;99.90;;;;;;5059412;28;19973;-76
2023/07/23 02:19:49;;;;;;;;;;;14.10;99.90;;;;;;5092849;28;20319;-75
2023/07/23 02:22:15;;;;;;;;;;;14.10;99.90;;;;;;5092609;28;20007;-76
2023/07/23 02:24:42;;;;;;;;;;;14.10;99.90;;;;;;5093997;28;19924;-77
2023/07/23 02:27:07;;;;;;;;;;;14.10;99.90;;;;;;5092269;28;19935;-76
2023/07/23 02:29:33;;;;;;;;;;;14.10;99.90;;;;;;5076176;28;19928;-74
2023/07/23 02:31:58;;;;;;;;;;;14.10;99.90;;;;;;5092956;28;19927;-77
2023/07/23 02:34:24;;;;;;;;;;;14.10;99.90;;;;;;5094170;28;20019;-75
2023/07/23 02:36:50;;;;;;;;;;;14.10;99.90;;;;;;5112795;28;20438;-76
2023/07/23 02:39:16;;;;;;;;;;;14.10;99.90;;;;;;5095830;28;19920;-75
2023/07/23 02:41:41;;;;;;;;;;;14.10;99.90;;;;;;5113401;28;19976;-77
2023/07/23 02:44:07;;;;;;;;;;;14.10;99.90;;;;;;5095520;28;20497;-76
2023/07/23 02:46:32;;;;;;;;;;;14.10;99.90;;;;;;5112740;28;19924;-75
2023/07/23 02:48:58;;;;;;;;;;;14.10;99.90;;;;;;5112720;28;19923;-77
2023/07/23 02:51:24;;;;;;;;;;;14.10;99.90;;;;;;5095659;28;20336;-75
2023/07/23 02:53:49;;;;;;;;;;;14.10;99.90;;;;;;5112873;28;19969;-75
2023/07/23 02:56:15;;;;;;;;;;;14.00;99.90;;;;;;5112142;28;20348;-76
2023/07/23 02:58:40;;;;;;;;;;;14.00;99.90;;;;;;5106768;28;19948;-76
2023/07/23 03:01:06;;;;;;;;;;;14.00;99.90;;;;;;5092697;28;20373;-76
2023/07/23 03:03:31;;;;;;;;;;;14.10;99.90;;;;;;5074792;28;19931;-76
2023/07/23 03:05:57;;;;;;;;;;;14.00;99.90;;;;;;5091430;28;19969;-75
2023/07/23 03:08:22;;;;;;;;;;;14.10;99.90;;;;;;5074455;28;20020;-75
2023/07/23 03:10:48;;;;;;;;;;;14.10;99.90;;;;;;5091968;28;20323;-75
2023/07/23 03:13:14;;;;;;;;;;;14.10;99.90;;;;;;5091049;28;19928;-76
2023/07/23 03:15:39;;;;;;;;;;;14.10;99.90;;;;;;5091377;28;19924;-75
2023/07/23 03:18:05;;;;;;;;;;;14.10;99.90;;;;;;5057880;28;19924;-74
2023/07/23 03:20:36;;;;;;;;;;;14.10;99.90;;;;;;5075566;28;20068;-76
2023/07/23 03:23:02;;;;;;;;;;;14.10;99.90;;;;;;5073662;28;20037;-78
2023/07/23 03:25:27;;;;;;;;;;;14.10;99.90;;;;;;5091085;28;19947;-77
2023/07/23 03:27:53;;;;;;;;;;;14.10;99.90;;;;;;5074392;28;19957;-75
2023/07/23 03:30:18;;;;;;;;;;;14.10;99.90;;;;;;5090822;28;19924;-76
2023/07/23 03:32:44;;;;;;;;;;;14.10;99.90;;;;;;5107778;28;19927;-77
2023/07/23 03:35:09;;;;;;;;;;;14.10;99.90;;;;;;5111833;28;19927;-76
2023/07/23 03:37:35;;;;;;;;;;;14.10;99.90;;;;;;5111630;28;19923;-76
2023/07/23 03:40:01;;;;;;;;;;;14.10;99.90;;;;;;5112291;28;19924;-76
2023/07/23 03:42:26;;;;;;;;;;;14.10;99.90;;;;;;5110835;28;19977;-75
2023/07/23 03:44:52;;;;;;;;;;;14.10;99.90;;;;;;5110845;28;19943;-77
2023/07/23 03:47:19;;;;;;;;;;;14.20;99.90;;;;;;5110819;28;19974;-76
2023/07/23 03:49:45;;;;;;;;;;;14.20;99.90;;;;;;5093710;28;19928;-75
2023/07/23 03:52:11;;;;;;;;;;;14.20;99.90;;;;;;5093984;28;19970;-76
2023/07/23 03:54:37;;;;;;;;;;;14.20;99.90;;;;;;5093118;28;19927;-77
2023/07/23 03:57:03;;;;;;;;;;;14.20;99.90;;;;;;5109621;28;19927;-75
2023/07/23 03:59:29;;;;;;;;;;;14.10;99.90;;;;;;5110159;28;19969;-77
2023/07/23 04:02:01;;;;;;;;;;;14.20;99.90;;;;;;5109915;28;19935;-76
2023/07/23 04:04:27;;;;;;;;;;;14.20;99.90;;;;;;5093458;28;20293;-77
2023/07/23 04:06:52;;;;;;;;;;;14.10;99.90;;;;;;5110275;28;19930;-76
2023/07/23 04:09:19;;;;;;;;;;;14.10;99.90;;;;;;5077009;28;19920;-75
2023/07/23 04:11:45;;;;;;;;;;;14.20;99.90;;;;;;5111450;28;20361;-76
2023/07/23 04:14:10;;;;;;;;;;;14.20;99.90;;;;;;5110698;28;19924;-75
2023/07/23 04:16:36;;;;;;;;;;;14.20;99.90;;;;;;5110643;28;19931;-75
2023/07/23 04:19:02;;;;;;;;;;;14.10;99.90;;;;;;5094026;28;19923;-75
2023/07/23 04:21:27;;;;;;;;;;;14.20;99.90;;;;;;5110174;28;19976;-75
2023/07/23 04:23:55;;;;;;;;;;;14.20;99.90;;;;;;5110629;28;20010;-77
2023/07/23 04:26:22;;;;;;;;;;;14.20;99.90;;;;;;5110357;28;20376;-77
2023/07/23 04:28:49;;;;;;;;;;;14.20;99.90;;;;;;5111069;28;19968;-76
2023/07/23 04:31:14;;;;;;;;;;;14.20;99.90;;;;;;5093652;28;19923;-74
2023/07/23 04:33:40;;;;;;;;;;;14.20;99.90;;;;;;5093646;28;19930;-76
2023/07/23 04:36:06;;;;;;;;;;;14.20;99.90;;;;;;5109842;28;19924;-75
2023/07/23 04:38:32;;;;;;;;;;;14.20;99.90;;;;;;5110690;28;20024;-76
2023/07/23 04:40:58;;;;;;;;;;;14.20;99.90;;;;;;5110480;28;19920;-77
2023/07/23 04:43:23;;;;;;;;;;;14.30;99.90;;;;;;5110206;28;19924;-76
2023/07/23 04:45:49;;;;;;;;;;;14.30;99.90;;;;;;5110555;28;19967;-76
2023/07/23 04:48:16;;;;;;;;;;;14.20;99.90;;;;;;5093815;28;19982;-77
2023/07/23 04:50:42;;;;;;;;;;;14.30;99.90;;;;;;5108411;28;19924;-77
2023/07/23 04:53:08;;;;;;;;;;;14.30;99.90;;;;;;5073411;28;19920;-78
2023/07/23 04:55:33;;;;;;;;;;;14.30;99.90;;;;;;5090305;28;20573;-77
2023/07/23 04:57:59;;;;;;;;;;;14.30;99.90;;;;;;5090593;28;20018;-78
2023/07/23 05:00:25;;;;;;;;;;;14.30;99.90;;;;;;5089937;28;20226;-79
2023/07/23 05:02:50;;;;;;;;;;;14.30;99.90;;;;;;5090305;28;19924;-78
2023/07/23 05:05:16;;;;;;;;;;;14.30;99.90;;;;;;5090409;28;20442;-79
2023/07/23 05:07:42;;;;;;;;;;;14.30;99.90;;;;;;5089756;28;19935;-77
2023/07/23 05:10:08;;;;;;;;;;;14.40;99.90;;;;;;5090024;28;20532;-79
2023/07/23 05:12:34;;;;;;;;;;;14.90;99.90;;;;;;5090243;28;19928;-77
2023/07/23 05:15:13;;;;;;;;;;;14.40;99.90;;;;;;5090469;28;19924;-79
2023/07/23 05:17:39;;;;;;;;;;;14.40;99.90;;;;;;5090071;28;19924;-80
2023/07/23 05:20:06;;;;;;;;;;;14.40;99.90;;;;;;5074248;28;19958;-83
2023/07/23 05:22:39;;;;;;;;;;;14.40;99.90;;;;;;5092015;28;19924;-82
2023/07/23 05:25:05;;;;;;;;;;;14.40;99.90;;;;;;5105994;28;19952;-82
2023/07/23 05:27:30;;;;;;;;;;;14.40;99.90;;;;;;5094256;28;20269;-78
2023/07/23 05:29:56;;;;;;;;;;;14.40;99.90;;;;;;5111075;28;19920;-81
2023/07/23 05:32:22;;;;;;;;;;;14.50;99.90;;;;;;5111075;28;20345;-80
2023/07/23 05:34:48;;;;;;;;;;;14.50;99.90;;;;;;5110905;28;19952;-79
2023/07/23 05:37:13;;;;;;;;;;;14.50;99.90;;;;;;5112666;28;19924;-81
2023/07/23 05:39:39;;;;;;;;;;;14.50;99.90;;;;;;5111391;28;20372;-82
2023/07/23 05:42:05;;;;;;;;;;;14.50;99.90;;;;;;5111085;28;19919;-80
2023/07/23 05:44:36;;;;;;;;;;;14.50;99.90;;;;;;5111581;28;19926;-78
2023/07/23 05:47:03;;;;;;;;;;;14.50;99.90;;;;;;5095418;28;19928;-79
2023/07/23 05:49:28;;;;;;;;;;;14.50;99.90;;;;;;5097683;28;20399;-82
2023/07/23 05:51:54;;;;;;;;;;;14.50;99.90;;;;;;5115882;28;19924;-81
2023/07/23 05:54:20;;;;;;;;;;;14.60;99.90;;;;;;5114531;28;20403;-82
2023/07/23 05:56:46;;;;;;;;;;;14.50;99.90;;;;;;5116036;28;20273;-80
2023/07/23 05:59:11;;;;;;;;;;;14.60;99.90;;;;;;5115765;28;20351;-82
2023/07/23 06:01:46;;;;;;;;;;;14.60;99.90;;;;;;5114881;28;19927;-80
2023/07/23 06:04:11;;;;;;;;;;;14.60;99.90;;;;;;5097702;28;19926;-78
2023/07/23 06:06:37;;;;;;;;;;;14.60;99.90;;;;;;5114030;28;19924;-77
2023/07/23 06:09:06;;;;;;;;;;;14.60;99.90;;;;;;5114976;28;19920;-78
2023/07/23 06:11:31;;;;;;;;;;;14.70;99.90;;;;;;5113859;28;19927;-78
2023/07/23 06:14:00;;;;;;;;;;;14.70;99.90;;;;;;5114642;28;19920;-79
2023/07/23 06:16:26;;;;;;;;;;;14.80;99.90;;;;;;5097198;28;19920;-83
2023/07/23 06:18:51;;;;;;;;;;;14.80;99.90;;;;;;5096930;28;20373;-81
2023/07/23 06:21:17;;;;;;;;;;;14.80;99.90;;;;;;5113898;28;19927;-81
2023/07/23 06:23:43;;;;;;;;;;;14.80;99.90;;;;;;5097333;28;20467;-81
2023/07/23 06:26:08;;;;;;;;;;;14.80;99.90;;;;;;5097055;28;19924;-78
2023/07/23 06:28:34;;;;;;;;;;;14.80;99.90;;;;;;5096293;28;20385;-80
2023/07/23 06:30:59;;;;;;;;;;;14.80;99.90;;;;;;5114299;28;19920;-82
2023/07/23 06:33:25;;;;;;;;;;;14.90;99.90;;;;;;5114212;28;19919;-83
2023/07/23 06:35:51;;;;;;;;;;;15.00;99.90;;;;;;5081053;28;19920;-80
2023/07/23 06:38:17;;;;;;;;;;;15.10;99.90;;;;;;5114043;28;20292;-79
2023/07/23 06:40:48;;;;;;;;;;;15.10;99.90;;;;;;5113711;28;20411;-82
2023/07/23 06:43:16;;;;;;;;;;;15.20;99.90;;;;;;5110455;28;20702;-78
2023/07/23 06:45:45;;;;;;;;;;;15.20;99.90;;;;;;5075921;28;19920;-80
2023/07/23 06:48:13;;;;;;;;;;;15.30;99.90;;;;;;5076474;28;20618;-80
2023/07/23 06:50:38;;;;;;;;;;;15.30;99.90;;;;;;5106061;28;19930;-79
2023/07/23 06:53:04;;;;;;;;;;;15.30;99.90;;;;;;5112679;28;19927;-79
2023/07/23 06:55:30;;;;;;;;;;;15.30;99.90;;;;;;5112770;28;19927;-78
2023/07/23 06:57:59;;;;;;;;;;;15.40;99.90;;;;;;5113899;28;20292;-79
2023/07/23 07:00:24;;;;;;;;;;;15.50;99.90;;;;;;5113388;28;19973;-80
2023/07/23 07:02:50;;;;;;;;;;;15.50;99.90;;;;;;5096383;28;19924;-78
2023/07/23 07:05:15;;;;;;;;;;;15.70;99.90;;;;;;5113600;28;20040;-78
2023/07/23 07:07:41;;;;;;;;;;;15.70;99.90;;;;;;5095501;28;19970;-80
2023/07/23 07:10:13;;;;;;;;;;;15.80;99.90;;;;;;5113791;28;19930;-81
2023/07/23 07:12:38;;;;;;;;;;;15.80;99.90;;;;;;5112598;28;19919;-80
2023/07/23 07:15:04;;;;;;;;;;;15.80;99.90;;;;;;5096131;28;20012;-78
2023/07/23 07:17:30;;;;;;;;;;;15.80;99.90;;;;;;5095610;28;20128;-81
2023/07/23 07:19:55;;;;;;;;;;;15.80;99.90;;;;;;5113074;28;19931;-83
2023/07/23 07:22:21;;;;;;;;;;;15.80;99.90;;;;;;5113866;27;20014;-81
2023/07/23 07:24:47;;;;;;;;;;;15.70;99.90;;;;;;5111968;28;20384;-81
2023/07/23 07:27:14;;;;;;;;;;;15.70;99.90;;;;;;5095668;28;19924;-78
2023/07/23 07:29:41;;;;;;;;;;;15.60;99.90;;;;;;5095878;28;19920;-80
2023/07/23 07:32:12;;;;;;;;;;;15.70;99.90;;;;;;5112817;28;19931;-81
2023/07/23 07:34:39;;;;;;;;;;;15.70;99.90;;;;;;5095233;28;19920;-79
2023/07/23 07:37:05;;;;;;;;;;;15.70;99.90;;;;;;5112352;28;20395;-79
2023/07/23 07:39:31;;;;;;;;;;;15.70;99.90;;;;;;5091838;28;19924;-77
2023/07/23 07:41:57;;;;;;;;;;;15.80;99.90;;;;;;5075389;28;19924;-78
2023/07/23 07:44:22;;;;;;;;;;;15.70;99.90;;;;;;5091443;28;20426;-77
2023/07/23 07:46:48;;;;;;;;;;;15.80;99.90;;;;;;5074170;28;20319;-79
2023/07/23 07:49:16;;;;;;;;;;;15.80;99.90;;;;;;5094677;28;19928;-77
2023/07/23 07:51:44;;;;;;;;;;;15.90;99.90;;;;;;5111402;28;20388;-76
2023/07/23 07:54:10;;;;;;;;;;;15.90;99.90;;;;;;5112315;28;19927;-76
2023/07/23 07:56:35;;;;;;;;;;;15.90;99.90;;;;;;5093976;28;20339;-77
2023/07/23 07:59:02;;;;;;;;;;;15.90;99.90;;;;;;5111955;28;20273;-79
2023/07/23 08:01:29;;;;;;;;;;;16.00;99.90;;;;;;5111695;28;19930;-78
2023/07/23 08:03:55;;;;;;;;;;;16.00;99.90;;;;;;5095275;28;19923;-81
2023/07/23 08:06:22;;;;;;;;;;;16.00;99.90;;;;;;5111901;28;20634;-81
2023/07/23 08:08:48;;;;;;;;;;;16.00;99.90;;;;;;5110290;28;19923;-80
2023/07/23 08:11:14;;;;;;;;;;;16.00;99.90;;;;;;5111093;28;19930;-80
2023/07/23 08:13:40;;;;;;;;;;;16.00;99.90;;;;;;5111858;28;19924;-81
2023/07/23 08:16:06;;;;;;;;;;;16.00;99.90;;;;;;5111483;28;19927;-79
2023/07/23 08:18:32;;;;;;;;;;;16.00;99.90;;;;;;5111349;28;20330;-80
2023/07/23 08:20:58;;;;;;;;;;;16.00;99.90;;;;;;5094464;28;19926;-82
2023/07/23 08:23:25;;;;;;;;;;;16.10;99.90;;;;;;5094634;28;19963;-82
2023/07/23 08:25:53;;;;;;;;;;;16.20;99.90;;;;;;5094843;28;19920;-80
2023/07/23 08:28:25;;;;;;;;;;;16.20;99.90;;;;;;5094983;28;20063;-80
2023/07/23 08:30:50;;;;;;;;;;;16.20;99.90;;;;;;5111534;28;20273;-80
2023/07/23 08:33:20;;;;;;;;;;;16.20;99.90;;;;;;5095611;28;19928;-81
2023/07/23 08:35:45;;;;;;;;;;;16.20;99.90;;;;;;5078386;28;20273;-79
2023/07/23 08:38:13;;;;;;;;;;;16.20;99.90;;;;;;5112109;28;19930;-81
2023/07/23 08:40:41;;;;;;;;;;;16.20;99.90;;;;;;5078361;28;20010;-80
2023/07/23 08:43:13;;;;;;;;;;;16.10;99.90;;;;;;5112065;28;19923;-80
2023/07/23 08:45:44;;;;;;;;;;;16.20;99.90;;;;;;5093917;28;19969;-79
2023/07/23 08:48:20;;;;;;;;;;;16.10;99.90;;;;;;5111679;28;19924;-78
2023/07/23 08:50:46;;;;;;;;;;;16.10;99.90;;;;;;5111099;28;19923;-80
2023/07/23 08:53:13;;;;;;;;;;;16.10;99.90;;;;;;5111868;28;20254;-81
2023/07/23 08:55:45;;;;;;;;;;;16.10;99.90;;;;;;5110668;28;19928;-79
2023/07/23 08:58:18;;;;;;;;;;;16.10;99.90;;;;;;5093798;28;20014;-81
2023/07/23 09:00:44;;;;;;;;;;;16.10;99.90;;;;;;5077526;28;20007;-82
2023/07/23 09:03:11;;;;;;;;;;;16.20;99.90;;;;;;5094361;28;19969;-80
2023/07/23 09:05:38;;;;;;;;;;;16.20;99.90;;;;;;5111267;28;20381;-78
2023/07/23 09:08:03;;;;;;;;;;;16.30;99.90;;;;;;5093840;28;19934;-83
2023/07/23 09:10:29;;;;;;;;;;;16.30;99.90;;;;;;5094207;28;20006;-78
2023/07/23 09:12:55;;;;;;;;;;;16.30;99.90;;;;;;5110573;28;19923;-82
2023/07/23 09:15:26;;;;;;;;;;;16.30;99.90;;;;;;5111270;28;19927;-77
2023/07/23 09:17:52;;;;;;;;;;;16.30;99.90;;;;;;5093872;28;20339;-79
2023/07/23 09:20:18;;;;;;;;;;;16.30;99.90;;;;;;5111128;28;19919;-82
2023/07/23 09:22:44;;;;;;;;;;;16.30;99.90;;;;;;5097602;28;19924;-77
2023/07/23 09:25:10;;;;;;;;;;;16.20;99.90;;;;;;5098264;28;20049;-79
2023/07/23 09:27:44;;;;;;;;;;;16.20;99.90;;;;;;5097267;28;19948;-80
2023/07/23 09:30:22;;;;;;;;;;;16.20;99.90;;;;;;5115103;28;19927;-79
2023/07/23 09:32:58;;;;;;;;;;;16.10;99.90;;;;;;5105707;28;20390;-79
2023/07/23 09:35:23;;;;;;;;;;;16.20;99.90;;;;;;5094929;28;20406;-80
2023/07/23 09:37:59;;;;;;;;;;;16.20;99.90;;;;;;5094838;28;19924;-81
2023/07/23 09:40:38;;;;;;;;;;;16.30;99.90;;;;;;5077505;28;19940;-81
2023/07/23 09:43:04;;;;;;;;;;;16.20;99.90;;;;;;5094757;28;19928;-78
2023/07/23 09:45:30;;;;;;;;;;;16.20;99.90;;;;;;5077291;28;19927;-80
2023/07/23 09:47:58;;;;;;;;;;;16.30;99.90;;;;;;5093471;28;19935;-80
2023/07/23 09:50:24;;;;;;;;;;;16.20;99.90;;;;;;5105282;28;19924;-77
2023/07/23 09:52:50;;;;;;;;;;;16.20;99.90;;;;;;5113841;28;19919;-82
2023/07/23 09:55:18;;;;;;;;;;;16.20;99.90;;;;;;5097470;28;19923;-80
2023/07/23 09:57:46;;;;;;;;;;;16.20;99.90;;;;;;5114231;28;20256;-79
2023/07/23 10:00:12;;;;;;;;;;;16.20;99.90;;;;;;5115882;28;19947;-81
2023/07/23 10:02:39;;;;;;;;;;;16.30;99.90;;;;;;5115379;28;19920;-79
2023/07/23 10:05:09;;;;;;;;;;;16.30;99.90;;;;;;5114366;28;19927;-78
2023/07/23 10:07:36;;;;;;;;;;;16.30;99.90;;;;;;5114116;28;19934;-79
2023/07/23 10:10:03;;;;;;;;;;;16.30;99.90;;;;;;5114553;28;19931;-76
2023/07/23 10:12:29;;;;;;;;;;;16.30;99.90;;;;;;5114791;28;19920;-81
2023/07/23 10:14:55;;;;;;;;;;;16.30;99.90;;;;;;5114790;28;20046;-77
2023/07/23 10:17:22;;;;;;;;;;;16.30;99.90;;;;;;5114429;28;20006;-77
2023/07/23 10:19:48;;;;;;;;;;;16.30;99.90;;;;;;5114321;28;20361;-78
2023/07/23 10:22:14;;;;;;;;;;;16.30;99.90;;;;;;5098037;28;19924;-79
2023/07/23 10:24:40;;;;;;;;;;;16.20;99.90;;;;;;5080409;28;20350;-76
2023/07/23 10:27:09;;;;;;;;;;;16.20;99.90;;;;;;5097372;28;19992;-79
2023/07/23 10:29:35;;;;;;;;;;;16.20;99.90;;;;;;5100065;28;19983;-79
2023/07/23 10:32:21;;;;;;;;;;;16.30;99.90;;;;;;5093619;28;19927;-78
2023/07/23 10:34:46;;;;;;;;;;;16.30;99.90;;;;;;5092269;28;19920;-76
2023/07/23 10:37:14;;;;;;;;;;;16.30;99.90;;;;;;5094576;28;20327;-79
2023/07/23 10:39:43;;;;;;;;;;;15.90;99.90;;;;;;5093184;28;20396;-79
2023/07/23 10:42:27;;;;;;;;;;;16.40;99.90;;;;;;5094891;28;19966;-76
2023/07/23 10:45:12;;;;;;;;;;;16.40;99.90;;;;;;5093308;28;19931;-78
2023/07/23 10:47:38;;;;;;;;;;;16.40;99.90;;;;;;5094565;28;19928;-78
2023/07/23 10:50:10;;;;;;;;;;;16.40;99.90;;;;;;5102018;28;20289;-76
2023/07/23 10:52:37;;;;;;;;;;;16.40;99.90;;;;;;5113361;28;19923;-77
2023/07/23 10:55:02;;;;;;;;;;;16.50;99.90;;;;;;5095890;28;20400;-78
2023/07/23 10:57:30;;;;;;;;;;;16.60;99.90;;;;;;5096339;28;19930;-76
2023/07/23 10:59:55;;;;;;;;;;;16.50;99.90;;;;;;5113173;28;20003;-81
2023/07/23 11:02:25;;;;;;;;;;;16.70;99.90;;;;;;5114538;28;19998;-75
2023/07/23 11:04:50;;;;;;;;;;;16.70;99.90;;;;;;5112900;28;19927;-76
2023/07/23 11:07:25;;;;;;;;;;;16.80;99.90;;;;;;5113293;28;19999;-78
2023/07/23 11:09:53;;;;;;;;;;;16.90;99.90;;;;;;5112554;28;19920;-80
2023/07/23 11:12:19;;;;;;;;;;;16.90;99.90;;;;;;5113449;28;19924;-77
2023/07/23 11:14:45;;;;;;;;;;;16.90;99.90;;;;;;5113231;28;19981;-79
2023/07/23 11:17:10;;;;;;;;;;;17.00;99.90;;;;;;5096403;28;20335;-79
2023/07/23 11:19:37;;;;;;;;;;;17.00;99.90;;;;;;5096808;28;19924;-79
2023/07/23 11:22:11;;;;;;;;;;;17.10;99.90;;;;;;5112994;28;19957;-76
2023/07/23 11:24:40;;;;;;;;;;;17.10;99.90;;;;;;5112132;28;19927;-78
2023/07/23 11:27:06;;;;;;;;;;;17.20;99.90;;;;;;5112776;28;19931;-77
2023/07/23 11:29:31;;;;;;;;;;;17.10;99.90;;;;;;5113032;28;19924;-81
2023/07/23 11:31:57;;;;;;;;;;;17.20;99.90;;;;;;5113119;28;19988;-76
2023/07/23 11:34:23;;;;;;;;;;;17.20;99.90;;;;;;5114920;28;19953;-80
2023/07/23 11:36:52;;;;;;;;;;;17.20;99.90;;;;;;5116350;28;20281;-79
2023/07/23 11:39:24;;;;;;;;;;;17.20;99.90;;;;;;5113476;28;20508;-79
2023/07/23 11:41:50;;;;;;;;;;;17.20;99.90;;;;;;5112396;28;19919;-77
2023/07/23 11:44:16;;;;;;;;;;;17.30;99.90;;;;;;5078384;28;19926;-79
2023/07/23 11:46:42;;;;;;;;;;;17.20;99.90;;;;;;5112174;28;19920;-80
2023/07/23 11:49:10;;;;;;;;;;;17.30;99.90;;;;;;5112234;28;19924;-79
2023/07/23 11:51:38;;;;;;;;;;;17.30;99.90;;;;;;5094455;28;20209;-80
2023/07/23 11:54:08;;;;;;;;;;;17.40;99.90;;;;;;5094595;28;20113;-77
2023/07/23 11:56:36;;;;;;;;;;;17.40;99.90;;;;;;5094616;28;20026;-77
2023/07/23 11:59:39;;;;;;;;;;;17.30;99.90;;;;;;5111901;28;19970;-77
2023/07/23 12:02:05;;;;;;;;;;;17.30;99.90;;;;;;5094664;28;20009;-79
2023/07/23 12:04:36;;;;;;;;;;;17.20;99.90;;;;;;5113336;28;20005;-79
2023/07/23 12:07:02;;;;;;;;;;;17.20;99.90;;;;;;5111327;28;19930;-77
2023/07/23 12:09:28;;;;;;;;;;;17.20;99.90;;;;;;5094579;28;19923;-77
2023/07/23 12:11:54;;;;;;;;;;;17.10;99.90;;;;;;5094244;28;19973;-80
2023/07/23 12:14:20;;;;;;;;;;;17.10;99.90;;;;;;5112147;28;19993;-78
2023/07/23 12:16:51;;;;;;;;;;;17.10;99.90;;;;;;5111547;28;19941;-79
2023/07/23 12:19:18;;;;;;;;;;;17.20;99.90;;;;;;5111864;28;19935;-75
2023/07/23 12:21:44;;;;;;;;;;;17.20;99.90;;;;;;5112555;28;20318;-78
2023/07/23 12:24:20;;;;;;;;;;;17.20;99.90;;;;;;5094555;28;19920;-78
2023/07/23 12:26:53;;;;;;;;;;;17.20;99.90;;;;;;5111537;28;19982;-78
2023/07/23 12:29:27;;;;;;;;;;;17.30;99.90;;;;;;5112025;28;19924;-76
2023/07/23 12:32:09;;;;;;;;;;;17.40;99.90;;;;;;5093910;28;19931;-78
2023/07/23 12:34:44;;;;;;;;;;;17.50;99.90;;;;;;5112428;28;19930;-76
2023/07/23 12:37:10;;;;;;;;;;;17.60;99.90;;;;;;5112228;28;19933;-79
2023/07/23 12:39:36;;;;;;;;;;;17.70;99.90;;;;;;5111376;28;20419;-77
2023/07/23 12:42:02;;;;;;;;;;;17.80;99.90;;;;;;5076839;28;19919;-78
2023/07/23 12:44:29;;;;;;;;;;;18.00;99.90;;;;;;5094269;28;19926;-79
2023/07/23 12:46:55;;;;;;;;;;;18.20;99.90;;;;;;5094220;28;19981;-76
2023/07/23 12:49:27;;;;;;;;;;;18.40;99.90;;;;;;5111468;28;19967;-79
2023/07/23 12:51:52;;;;;;;;;;;18.70;99.90;;;;;;5110398;28;19963;-77
2023/07/23 12:54:19;;;;;;;;;;;18.90;99.90;;;;;;5111489;28;19981;-77
2023/07/23 12:56:45;;;;;;;;;;;;;;;;;;5110806;28;19928;-74
2023/07/23 12:59:12;;;;;;;;;;;19.20;99.90;;;;;;5110507;28;20011;-78
2023/07/23 13:01:41;;;;;;;;;;;19.30;99.90;;;;;;5110150;28;19926;-79
2023/07/23 13:04:06;;;;;;;;;;;19.40;99.90;;;;;;5077024;28;19931;-77
2023/07/23 13:06:33;;;;;;;;;;;19.50;99.90;;;;;;5110262;28;19924;-79
2023/07/23 13:08:59;;;;;;;;;;;19.60;99.90;;;;;;5109845;28;20489;-77
2023/07/23 13:11:24;;;;;;;;;;;19.70;99.90;;;;;;5111636;28;19937;-80
2023/07/23 13:13:50;;;;;;;;;;;19.60;99.90;;;;;;5110466;28;20355;-79
2023/07/23 13:16:16;;;;;;;;;;;19.50;99.90;;;;;;5110099;28;19924;-79
2023/07/23 13:18:42;;;;;;;;;;;19.20;99.90;;;;;;5093500;28;19926;-80
2023/07/23 13:21:07;;;;;;;;;;;19.00;99.90;;;;;;5093105;28;19930;-76
2023/07/23 13:23:33;;;;;;;;;;;18.80;99.90;;;;;;5093544;28;19973;-76
2023/07/23 13:26:00;;;;;;;;;;;18.70;99.90;;;;;;5110641;28;19924;-77
2023/07/23 13:28:26;;;;;;;;;;;18.60;99.90;;;;;;5110939;28;19934;-76
2023/07/23 13:30:54;;;;;;;;;;;18.50;99.90;;;;;;5110796;28;19949;-79
2023/07/23 13:33:19;;;;;;;;;;;18.40;99.90;;;;;;5077309;28;19928;-78
2023/07/23 13:35:45;;;;;;;;;;;18.40;99.90;;;;;;5093968;28;19920;-77
2023/07/23 13:38:11;;;;;;;;;;;18.30;99.90;;;;;;5110447;28;19962;-78
2023/07/23 13:40:38;;;;;;;;;;;18.30;99.90;;;;;;5110935;28;19926;-80
2023/07/23 13:43:05;;;;;;;;;;;18.10;99.90;;;;;;5110434;28;19923;-76
2023/07/23 13:45:30;;;;;;;;;;;18.10;99.90;;;;;;5110776;28;20365;-77
2023/07/23 13:47:57;;;;;;;;;;;18.30;99.90;;;;;;5110709;28;19924;-80
2023/07/23 13:50:23;;;;;;;;;;;18.60;99.90;;;;;;5110786;28;20380;-79
2023/07/23 13:52:49;;;;;;;;;;;19.10;99.90;;;;;;5111806;28;19975;-77
2023/07/23 13:55:14;;;;;;;;;;;19.60;99.90;;;;;;5111164;28;19932;-79
2023/07/23 13:57:40;;;;;;;;;;;20.20;99.90;;;;;;5110776;28;20014;-75
2023/07/23 14:00:06;;;;;;;;;;;20.60;99.90;;;;;;5109897;28;20420;-78
2023/07/23 14:02:32;;;;;;;;;;;20.80;99.90;;;;;;5076956;28;19915;-78
2023/07/23 14:04:57;;;;;;;;;;;21.00;99.90;;;;;;5077482;28;19946;-77
2023/07/23 14:07:23;;;;;;;;;;;21.20;99.90;;;;;;5111256;28;19959;-77
2023/07/23 14:09:49;;;;;;;;;;;21.30;99.90;;;;;;5113944;28;20686;-78
2023/07/23 14:12:14;;;;;;;;;;;21.30;99.90;;;;;;5113290;28;19934;-78
2023/07/23 14:14:40;;;;;;;;;;;21.40;99.90;;;;;;5113382;28;20300;-77
2023/07/23 14:17:05;;;;;;;;;;;21.40;99.90;;;;;;5113447;28;19924;-77